Time;durP1;ratioP1;P1;durP2;ratioP2;P2;SDS_P1;SDS_P2;PMS_P1;PMS_P2;Temp;Humidity;BMP_temperature;BMP_pressure;BME280_temperature;BME280_humidity;BME280_pressure;Samples;Min_cycle;Max_cycle;Signal;HPM_P1;HPM_P2
2023/04/12 00:00:35;;;;;;;3.60;2.83;;;22.80;59.80;;;;;;4820198;29;20083;-66
2023/04/12 00:03:06;;;;;;;3.65;2.95;;;22.60;59.90;;;;;;4804534;29;20163;-66
2023/04/12 00:05:33;;;;;;;3.88;2.60;;;22.60;59.80;;;;;;4819895;29;20518;-66
2023/04/12 00:08:02;;;;;;;3.33;2.60;;;22.60;60.00;;;;;;4820076;29;20061;-66
2023/04/12 00:10:28;;;;;;;4.43;2.83;;;22.70;60.10;;;;;;4820092;29;20460;-65
2023/04/12 00:12:54;;;;;;;5.72;2.92;;;22.80;59.70;;;;;;4837468;29;20110;-65
2023/04/12 00:15:20;;;;;;;7.28;3.53;;;22.80;59.30;;;;;;4840757;29;20108;-65
2023/04/12 00:17:46;;;;;;;5.57;2.90;;;22.80;59.30;;;;;;4840260;29;20133;-65
2023/04/12 00:20:15;;;;;;;4.60;3.53;;;22.70;59.50;;;;;;4840312;29;20045;-65
2023/04/12 00:22:41;;;;;;;5.88;3.55;;;22.80;59.60;;;;;;4840493;29;20046;-66
2023/04/12 00:25:08;;;;;;;8.18;3.67;;;22.60;59.50;;;;;;4840483;29;20045;-67
2023/04/12 00:27:34;;;;;;;4.95;3.47;;;22.70;59.50;;;;;;4840539;29;20061;-66
2023/04/12 00:30:02;;;;;;;6.03;3.15;;;22.70;59.60;;;;;;4839111;29;20041;-65
2023/04/12 00:32:28;;;;;;;4.82;3.30;;;22.60;59.60;;;;;;4859610;29;20375;-66
2023/04/12 00:34:54;;;;;;;5.55;3.42;;;22.60;59.60;;;;;;4861283;29;20045;-65
2023/04/12 00:37:20;;;;;;;4.65;3.95;;;22.50;59.70;;;;;;4862595;29;20045;-65
2023/04/12 00:39:47;;;;;;;5.40;3.40;;;22.50;59.70;;;;;;4845792;29;20583;-65
2023/04/12 00:42:13;;;;;;;5.32;3.65;;;22.60;59.90;;;;;;4861128;29;20052;-65
2023/04/12 00:44:40;;;;;;;4.85;3.40;;;22.60;60.00;;;;;;4861200;29;20158;-66
2023/04/12 00:47:06;;;;;;;4.22;3.33;;;22.60;59.80;;;;;;4875488;29;20502;-66
2023/04/12 00:49:33;;;;;;;3.47;3.00;;;22.60;59.70;;;;;;4845868;29;20551;-65
2023/04/12 00:52:03;;;;;;;5.15;3.85;;;22.40;59.70;;;;;;4862275;29;20457;-65
2023/04/12 00:54:34;;;;;;;3.47;3.00;;;22.50;59.80;;;;;;4862165;29;20504;-65
2023/04/12 00:57:00;;;;;;;3.92;3.05;;;22.50;60.00;;;;;;4861994;29;20112;-65
2023/04/12 00:59:27;;;;;;;4.05;2.95;;;22.50;59.90;;;;;;4862160;29;20041;-65
2023/04/12 01:01:55;;;;;;;4.32;3.42;;;22.50;59.80;;;;;;4861993;29;20462;-65
2023/04/12 01:04:21;;;;;;;5.85;3.80;;;22.40;59.70;;;;;;4861895;29;20124;-66
2023/04/12 01:06:50;;;;;;;4.55;3.42;;;22.50;59.80;;;;;;4862088;29;20128;-65
2023/04/12 01:09:19;;;;;;;3.83;3.17;;;22.60;59.70;;;;;;4861890;29;20057;-65
2023/04/12 01:12:04;;;;;;;3.33;3.03;;;22.50;59.60;;;;;;4861777;29;20036;-65
2023/04/12 01:15:01;;;;;;;5.47;2.97;;;22.50;59.70;;;;;;4860710;29;20121;-65
2023/04/12 01:17:36;;;;;;;3.78;3.25;;;22.50;59.60;;;;;;4860655;29;20406;-65
2023/04/12 01:20:15;;;;;;;3.65;3.17;;;22.40;59.50;;;;;;4860509;29;20121;-65
2023/04/12 01:22:53;;;;;;;4.72;3.58;;;22.50;59.60;;;;;;4860492;29;20083;-65
2023/04/12 01:25:28;;;;;;;4.28;3.42;;;22.50;59.70;;;;;;4861808;29;20124;-66
2023/04/12 01:28:00;;;;;;;4.35;3.42;;;22.40;59.60;;;;;;4861760;29;20128;-65
2023/04/12 01:30:27;;;;;;;4.32;3.08;;;22.40;59.70;;;;;;4860310;29;20509;-66
2023/04/12 01:32:55;;;;;;;3.97;2.80;;;22.30;59.60;;;;;;4860185;29;20093;-65
2023/04/12 01:35:31;;;;;;;4.03;3.15;;;22.30;59.50;;;;;;4860069;29;20049;-66
2023/04/12 01:37:58;;;;;;;3.92;3.00;;;22.30;59.40;;;;;;4861443;29;20644;-65
2023/04/12 01:40:27;;;;;;;3.45;3.03;;;22.40;59.50;;;;;;4861430;29;20045;-65
2023/04/12 01:43:09;;;;;;;3.75;2.90;;;22.30;59.70;;;;;;4860612;29;20116;-65
2023/04/12 01:45:35;;;;;;;3.90;3.38;;;22.30;59.70;;;;;;4861084;29;20438;-65
2023/04/12 01:48:10;;;;;;;4.43;3.33;;;22.20;59.60;;;;;;4858421;29;20049;-65
2023/04/12 01:50:46;;;;;;;7.47;3.08;;;22.30;59.70;;;;;;4859726;29;20037;-65
2023/04/12 01:53:19;;;;;;;5.32;3.33;;;22.30;59.60;;;;;;4859927;29;20069;-66
2023/04/12 01:55:47;;;;;;;4.53;3.22;;;22.30;59.60;;;;;;4859584;29;20447;-65
2023/04/12 01:58:19;;;;;;;4.88;3.45;;;22.50;59.50;;;;;;4861134;29;20056;-65
2023/04/12 02:00:47;;;;;;;5.18;3.95;;;22.40;59.50;;;;;;4840245;29;20058;-65
2023/04/12 02:03:13;;;;;;;6.43;3.90;;;22.40;59.50;;;;;;4841130;29;20122;-65
2023/04/12 02:05:39;;;;;;;3.58;3.28;;;22.40;59.40;;;;;;4841051;29;20064;-65
2023/04/12 02:08:06;;;;;;;3.95;3.50;;;22.40;59.40;;;;;;4842351;29;20394;-66
2023/04/12 02:10:35;;;;;;;4.05;3.53;;;22.40;59.50;;;;;;4841387;29;20041;-65
2023/04/12 02:13:02;;;;;;;3.83;3.08;;;22.30;59.50;;;;;;4841070;29;20061;-65
2023/04/12 02:15:30;;;;;;;3.75;3.38;;;22.30;59.50;;;;;;4842291;29;20064;-66
2023/04/12 02:17:58;;;;;;;4.25;3.47;;;22.10;59.40;;;;;;4841167;29;20053;-65
2023/04/12 02:20:24;;;;;;;6.97;4.25;;;22.20;59.40;;;;;;4841389;29;20324;-65
2023/04/12 02:22:50;;;;;;;5.38;3.80;;;22.20;59.40;;;;;;4840773;29;20042;-65
2023/04/12 02:25:17;;;;;;;5.05;3.65;;;22.40;59.50;;;;;;4825884;29;20095;-65
2023/04/12 02:27:45;;;;;;;4.47;3.55;;;22.20;59.30;;;;;;4840873;29;20121;-64
2023/04/12 02:30:13;;;;;;;6.90;3.70;;;22.20;59.40;;;;;;4822690;29;20561;-65
2023/04/12 02:32:43;;;;;;;6.22;3.63;;;22.20;59.40;;;;;;4859052;29;20494;-66
2023/04/12 02:35:13;;;;;;;4.07;3.65;;;22.20;59.30;;;;;;4859537;29;20041;-65
2023/04/12 02:37:40;;;;;;;6.07;3.42;;;22.20;59.20;;;;;;4859281;29;20041;-64
2023/04/12 02:40:09;;;;;;;5.43;3.45;;;22.20;59.20;;;;;;4859308;29;20034;-66
2023/04/12 02:42:39;;;;;;;7.78;3.95;;;22.10;59.10;;;;;;4857381;29;20057;-65
2023/04/12 02:45:06;;;;;;;4.03;3.40;;;22.20;59.20;;;;;;4842423;29;20054;-65
2023/04/12 02:47:32;;;;;;;3.30;2.95;;;22.10;59.20;;;;;;4827036;29;20050;-65
2023/04/12 02:50:01;;;;;;;4.35;3.35;;;22.30;58.70;;;;;;4842355;29;20045;-65
2023/04/12 02:52:28;;;;;;;6.28;3.30;;;22.30;59.10;;;;;;4842025;29;20072;-65
2023/04/12 02:55:04;;;;;;;4.95;3.95;;;22.20;59.00;;;;;;4842241;29;20435;-66
2023/04/12 02:57:30;;;;;;;4.97;3.30;;;22.30;59.00;;;;;;4842372;29;20045;-65
2023/04/12 02:59:56;;;;;;;6.47;3.50;;;22.30;59.00;;;;;;4842131;29;20437;-65
2023/04/12 03:02:33;;;;;;;3.75;3.38;;;22.30;58.90;;;;;;4857472;29;20054;-65
2023/04/12 03:05:03;;;;;;;7.85;3.78;;;22.20;59.00;;;;;;4841852;29;20114;-65
2023/04/12 03:07:47;;;;;;;5.63;3.05;;;22.20;59.10;;;;;;4844157;29;20042;-65
2023/04/12 03:10:17;;;;;;;6.15;3.63;;;22.20;59.20;;;;;;4842178;29;20096;-65
2023/04/12 03:12:49;;;;;;;5.55;3.70;;;22.10;59.00;;;;;;4842105;29;20041;-65
2023/04/12 03:15:22;;;;;;;4.93;3.67;;;22.20;59.20;;;;;;4858662;29;20040;-65
2023/04/12 03:17:50;;;;;;;5.78;3.78;;;22.10;59.20;;;;;;4843297;29;20041;-66
2023/04/12 03:20:20;;;;;;;6.07;3.63;;;22.10;59.20;;;;;;4843228;29;20465;-66
2023/04/12 03:23:07;;;;;;;4.72;3.95;;;22.10;59.30;;;;;;4845119;29;20517;-65
2023/04/12 03:25:36;;;;;;;3.65;3.15;;;22.20;59.10;;;;;;4858439;29;20105;-65
2023/04/12 03:28:22;;;;;;;3.53;3.22;;;22.30;59.20;;;;;;4858202;29;20029;-65
2023/04/12 03:30:51;;;;;;;6.07;4.25;;;22.10;58.90;;;;;;4841515;29;20050;-65
2023/04/12 03:33:20;;;;;;;4.30;3.17;;;22.20;59.00;;;;;;4826418;29;20517;-65
2023/04/12 03:35:47;;;;;;;6.50;3.95;;;22.20;58.90;;;;;;4841639;29;20106;-65
2023/04/12 03:38:14;;;;;;;7.53;4.03;;;22.20;58.90;;;;;;4841786;29;20057;-65
2023/04/12 03:40:42;;;;;;;3.83;3.40;;;22.10;59.00;;;;;;4841684;29;20434;-65
2023/04/12 03:43:09;;;;;;;4.40;3.97;;;22.10;59.20;;;;;;4841330;29;20041;-66
2023/04/12 03:45:35;;;;;;;5.07;3.92;;;22.10;58.50;;;;;;4856816;29;20474;-65
2023/04/12 03:48:03;;;;;;;5.25;3.67;;;22.20;58.80;;;;;;4841172;29;20038;-66
2023/04/12 03:50:42;;;;;;;4.88;3.05;;;22.20;58.80;;;;;;4824364;29;20046;-66
2023/04/12 03:53:10;;;;;;;5.22;3.78;;;22.20;58.60;;;;;;4822873;29;20049;-66
2023/04/12 03:55:39;;;;;;;5.78;3.58;;;22.30;58.50;;;;;;4823188;29;20157;-65
2023/04/12 03:58:06;;;;;;;4.90;3.88;;;22.40;58.40;;;;;;4823323;29;20062;-66
2023/04/12 04:00:39;;;;;;;3.83;3.42;;;22.40;58.10;;;;;;4823000;29;20054;-66
2023/04/12 04:03:07;;;;;;;3.67;3.15;;;22.30;58.60;;;;;;4839147;29;20069;-67
2023/04/12 04:05:41;;;;;;;4.45;3.17;;;22.60;61.50;;;;;;4839421;29;20054;-67
2023/04/12 04:08:08;;;;;;;4.72;3.60;;;22.80;63.50;;;;;;4819946;29;20051;-68
2023/04/12 04:10:53;;;;;;;6.25;5.32;;;23.10;63.40;;;;;;4804956;29;20045;-67
2023/04/12 04:13:23;;;;;;;6.82;4.85;;;23.40;63.70;;;;;;4804657;29;20062;-67
2023/04/12 04:16:03;;;;;;;6.85;4.80;;;23.20;59.00;;;;;;4804816;29;20230;-65
2023/04/12 04:18:30;;;;;;;6.60;4.57;;;23.30;57.70;;;;;;4804718;29;20082;-66
2023/04/12 04:20:57;;;;;;;6.30;4.47;;;23.10;56.10;;;;;;4801447;29;20058;-65
2023/04/12 04:23:24;;;;;;;8.32;4.38;;;23.10;55.90;;;;;;4786515;29;20488;-65
2023/04/12 04:25:52;;;;;;;6.20;4.80;;;23.00;56.20;;;;;;4786592;29;20082;-66
2023/04/12 04:28:19;;;;;;;6.10;4.20;;;22.90;56.80;;;;;;4799261;29;20061;-65
2023/04/12 04:30:45;;;;;;;5.68;4.60;;;22.70;57.20;;;;;;4804581;29;20046;-64
2023/04/12 04:33:14;;;;;;;7.57;4.97;;;22.80;57.30;;;;;;4819684;29;20149;-65
2023/04/12 04:35:42;;;;;;;7.75;5.15;;;22.70;58.00;;;;;;4819739;29;20046;-65
2023/04/12 04:38:27;;;;;;;6.57;4.38;;;22.60;58.50;;;;;;4823544;29;20050;-65
2023/04/12 04:41:03;;;;;;;7.40;3.83;;;22.70;58.80;;;;;;4837809;29;20061;-65
2023/04/12 04:43:45;;;;;;;5.03;3.88;;;22.50;59.00;;;;;;4850947;29;20088;-66
2023/04/12 04:46:12;;;;;;;7.10;3.80;;;22.70;58.90;;;;;;4822596;29;20483;-66
2023/04/12 04:48:39;;;;;;;6.32;3.85;;;22.70;58.50;;;;;;4822552;29;20054;-66
2023/04/12 04:51:06;;;;;;;6.75;4.22;;;22.90;58.40;;;;;;4822450;29;20134;-66
2023/04/12 04:53:32;;;;;;;8.18;5.60;;;22.80;58.00;;;;;;4837399;29;20421;-64
2023/04/12 04:56:00;;;;;;;9.40;5.00;;;22.80;55.60;;;;;;4822528;29;20037;-65
2023/04/12 04:58:31;;;;;;;6.38;4.82;;;22.70;53.00;;;;;;4842475;29;20067;-65
2023/04/12 05:00:58;;;;;;;6.57;5.28;;;22.80;52.90;;;;;;4874612;29;20124;-65
2023/04/12 05:03:27;;;;;;;6.40;4.65;;;22.80;52.00;;;;;;4858926;29;20079;-65
2023/04/12 05:05:56;;;;;;;4.70;4.00;;;22.80;52.20;;;;;;4858811;29;20103;-65
2023/04/12 05:08:22;;;;;;;6.28;4.50;;;22.80;51.30;;;;;;4859282;29;20061;-65
2023/04/12 05:10:52;;;;;;;5.55;4.57;;;22.90;52.50;;;;;;4859014;29;20045;-65
2023/04/12 05:13:20;;;;;;;7.53;4.90;;;22.80;52.60;;;;;;4859101;29;20044;-66
2023/04/12 05:15:47;;;;;;;8.38;5.32;;;22.80;54.30;;;;;;4856977;29;20053;-66
2023/04/12 05:18:14;;;;;;;6.90;4.90;;;23.00;54.60;;;;;;4860333;29;20070;-65
2023/04/12 05:20:40;;;;;;;6.47;5.47;;;23.00;53.80;;;;;;4862036;29;20069;-65
2023/04/12 05:23:06;;;;;;;9.07;4.82;;;22.90;54.70;;;;;;4860555;29;20131;-65
2023/04/12 05:25:33;;;;;;;8.57;5.50;;;23.00;55.60;;;;;;4844254;29;20064;-65
2023/04/12 05:28:06;;;;;;;8.02;5.30;;;23.10;54.00;;;;;;4860416;29;20041;-65
2023/04/12 05:30:32;;;;;;;9.55;6.20;;;23.00;51.90;;;;;;4861535;29;20116;-66
2023/04/12 05:33:00;;;;;;;7.70;6.55;;;23.00;51.10;;;;;;4860301;29;20040;-65
2023/04/12 05:35:26;;;;;;;6.90;5.45;;;23.00;49.80;;;;;;4860119;29;20037;-65
2023/04/12 05:37:57;;;;;;;10.55;6.20;;;22.90;49.20;;;;;;4859947;29;20053;-64
2023/04/12 05:40:24;;;;;;;6.47;4.03;;;23.00;51.70;;;;;;4860301;29;20041;-65
2023/04/12 05:42:51;;;;;;;7.97;4.53;;;23.10;58.20;;;;;;4844641;29;20124;-63
2023/04/12 05:45:18;;;;;;;6.85;4.43;;;23.20;59.10;;;;;;4861374;29;20042;-65
2023/04/12 05:47:44;;;;;;;7.18;5.10;;;23.20;59.70;;;;;;4860070;29;20085;-65
2023/04/12 05:50:11;;;;;;;8.55;5.57;;;23.20;60.20;;;;;;4840736;29;20076;-66
2023/04/12 05:52:37;;;;;;;7.97;4.38;;;23.30;60.40;;;;;;4844506;29;20044;-65
2023/04/12 05:55:05;;;;;;;9.38;5.07;;;23.20;60.30;;;;;;4854230;29;20033;-65
2023/04/12 05:57:32;;;;;;;7.13;4.40;;;23.20;60.70;;;;;;4841590;29;20042;-65
2023/04/12 05:59:58;;;;;;;5.93;4.15;;;23.20;60.40;;;;;;4842635;29;20095;-66
2023/04/12 06:02:26;;;;;;;6.68;4.70;;;23.20;59.50;;;;;;4841049;29;20047;-65
2023/04/12 06:04:54;;;;;;;8.20;4.38;;;23.30;58.50;;;;;;4842087;29;20058;-64
2023/04/12 06:07:20;;;;;;;7.15;4.85;;;23.30;57.80;;;;;;4841155;29;20038;-64
2023/04/12 06:09:47;;;;;;;9.77;5.50;;;23.30;58.20;;;;;;4841035;29;20042;-65
2023/04/12 06:12:13;;;;;;;5.88;4.60;;;23.40;58.00;;;;;;4841207;29;20418;-65
2023/04/12 06:14:39;;;;;;;7.57;4.50;;;23.30;57.90;;;;;;4841031;29;20553;-65
2023/04/12 06:17:06;;;;;;;6.43;4.70;;;23.30;60.40;;;;;;4841208;29;20045;-64
2023/04/12 06:19:32;;;;;;;5.97;4.85;;;23.40;59.20;;;;;;4840977;29;20498;-65
2023/04/12 06:21:58;;;;;;;8.02;4.97;;;23.50;58.60;;;;;;4825649;29;20038;-64
2023/04/12 06:24:25;;;;;;;6.68;3.97;;;23.40;57.60;;;;;;4842073;29;20052;-65
2023/04/12 06:26:51;;;;;;;6.00;4.03;;;23.50;57.90;;;;;;4828114;29;20462;-65
2023/04/12 06:29:18;;;;;;;7.25;5.32;;;23.40;57.80;;;;;;4859084;29;20037;-66
2023/04/12 06:31:46;;;;;;;10.57;4.43;;;23.30;55.70;;;;;;4850068;29;20037;-66
2023/04/12 06:34:12;;;;;;;8.90;5.95;;;23.30;57.80;;;;;;4857772;29;20026;-66
2023/04/12 06:36:40;;;;;;;7.80;4.45;;;23.20;55.10;;;;;;4846889;29;20140;-66
2023/04/12 06:39:08;;;;;;;11.85;4.57;;;23.40;57.70;;;;;;4858064;29;20053;-66
2023/04/12 06:41:34;;;;;;;12.35;4.70;;;23.40;57.70;;;;;;4857908;29;20053;-68
2023/04/12 06:44:00;;;;;;;6.22;3.85;;;23.40;57.40;;;;;;4821894;29;20058;-68
2023/04/12 06:46:27;;;;;;;11.80;4.55;;;23.30;57.10;;;;;;4839709;29;20038;-67
2023/04/12 06:48:53;;;;;;;8.48;5.32;;;23.40;56.80;;;;;;4839409;29;20049;-67
2023/04/12 06:51:19;;;;;;;11.85;5.93;;;23.40;56.50;;;;;;4839595;29;20045;-66
2023/04/12 06:53:45;;;;;;;10.45;5.03;;;23.30;56.30;;;;;;4839334;29;20048;-66
2023/04/12 06:56:11;;;;;;;10.52;5.65;;;23.40;56.70;;;;;;4839000;29;20147;-67
2023/04/12 06:58:37;;;;;;;11.45;5.80;;;23.40;52.70;;;;;;4839257;29;20065;-66
2023/04/12 07:01:08;;;;;;;10.55;6.13;;;23.30;55.90;;;;;;4839173;29;20114;-66
2023/04/12 07:03:35;;;;;;;10.43;6.32;;;23.30;56.30;;;;;;4839204;29;20587;-65
2023/04/12 07:06:03;;;;;;;10.98;5.90;;;23.20;56.70;;;;;;4823799;29;20197;-67
2023/04/12 07:08:31;;;;;;;9.88;5.80;;;23.30;56.40;;;;;;4837445;29;20054;-66
2023/04/12 07:10:57;;;;;;;9.43;6.07;;;23.30;57.60;;;;;;4841585;29;20045;-66
2023/04/12 07:13:23;;;;;;;10.77;5.30;;;23.20;57.50;;;;;;4841507;29;20037;-66
2023/04/12 07:15:49;;;;;;;9.05;6.47;;;23.00;57.90;;;;;;4841235;29;20044;-67
2023/04/12 07:18:16;;;;;;;11.77;5.90;;;23.10;57.80;;;;;;4841257;29;20405;-66
2023/04/12 07:20:42;;;;;;;11.38;6.82;;;23.20;58.20;;;;;;4841325;29;20065;-67
2023/04/12 07:23:08;;;;;;;9.52;5.63;;;23.10;58.80;;;;;;4841441;29;20041;-65
2023/04/12 07:25:38;;;;;;;9.32;5.82;;;23.10;58.70;;;;;;4840922;29;20133;-65
2023/04/12 07:28:05;;;;;;;11.43;5.80;;;23.00;59.00;;;;;;4841048;29;20048;-66
2023/04/12 07:30:31;;;;;;;10.65;6.45;;;23.10;59.00;;;;;;4841147;29;20034;-67
2023/04/12 07:32:59;;;;;;;8.20;4.85;;;23.20;61.30;;;;;;4839865;29;20134;-66
2023/04/12 07:35:26;;;;;;;7.47;5.22;;;23.10;60.10;;;;;;4847880;29;20081;-66
2023/04/12 07:37:52;;;;;;;8.50;4.70;;;23.20;59.80;;;;;;4858364;29;20060;-65
2023/04/12 07:40:19;;;;;;;7.55;5.60;;;23.20;59.50;;;;;;4858094;29;20049;-67
2023/04/12 07:42:45;;;;;;;12.30;5.60;;;23.10;57.30;;;;;;4859425;29;20041;-66
2023/04/12 07:45:11;;;;;;;6.45;4.43;;;23.10;58.30;;;;;;4859166;29;20033;-66
2023/04/12 07:47:37;;;;;;;7.47;5.47;;;23.10;59.20;;;;;;4838234;29;20077;-68
2023/04/12 07:50:04;;;;;;;8.50;5.38;;;23.10;59.60;;;;;;4838610;29;20114;-67
2023/04/12 07:52:31;;;;;;;7.35;5.10;;;23.20;58.70;;;;;;4838116;29;20136;-67
2023/04/12 07:54:57;;;;;;;7.30;5.53;;;23.20;58.70;;;;;;4838267;29;20074;-68
2023/04/12 07:57:23;;;;;;;9.40;5.35;;;23.30;58.40;;;;;;4836590;29;20054;-67
2023/04/12 07:59:49;;;;;;;9.90;5.00;;;23.20;59.20;;;;;;4838595;29;20106;-66
2023/04/12 08:02:23;;;;;;;11.02;5.25;;;23.10;58.40;;;;;;4838192;29;20459;-67
2023/04/12 08:04:50;;;;;;;8.02;5.47;;;23.20;59.60;;;;;;4810683;29;20054;-68
2023/04/12 08:07:16;;;;;;;8.30;5.20;;;23.00;59.40;;;;;;4820229;29;20090;-66
2023/04/12 08:09:42;;;;;;;8.30;5.20;;;23.00;60.00;;;;;;4804789;29;20541;-67
2023/04/12 08:12:08;;;;;;;9.27;5.47;;;23.10;60.20;;;;;;4820028;29;20066;-67
2023/04/12 08:14:34;;;;;;;8.43;6.00;;;23.20;60.30;;;;;;4820016;29;20038;-67
2023/04/12 08:17:00;;;;;;;13.68;5.70;;;23.10;60.60;;;;;;4820088;29;20142;-67
2023/04/12 08:19:26;;;;;;;10.38;5.53;;;23.10;60.60;;;;;;4804844;29;20065;-67
2023/04/12 08:21:52;;;;;;;8.50;5.80;;;23.10;60.60;;;;;;4820217;29;20479;-68
2023/04/12 08:24:19;;;;;;;10.63;5.43;;;23.10;60.80;;;;;;4819945;29;20054;-67
2023/04/12 08:26:45;;;;;;;8.15;6.30;;;23.10;61.00;;;;;;4789747;29;20129;-67
2023/04/12 08:29:11;;;;;;;8.20;6.20;;;23.10;60.80;;;;;;4820062;29;20046;-68
2023/04/12 08:31:38;;;;;;;9.40;6.60;;;23.10;60.50;;;;;;4820995;29;20038;-67
2023/04/12 08:34:05;;;;;;;7.43;4.90;;;23.20;61.00;;;;;;4819878;29;20118;-66
2023/04/12 08:36:31;;;;;;;11.05;5.60;;;23.00;60.90;;;;;;4783261;30;20146;-66
2023/04/12 08:38:59;;;;;;;8.43;4.90;;;23.10;60.90;;;;;;4783786;30;20047;-67
2023/04/12 08:41:25;;;;;;;7.97;5.22;;;23.20;61.00;;;;;;4786012;29;20580;-66
2023/04/12 08:43:55;;;;;;;9.48;5.10;;;23.20;60.40;;;;;;4801731;29;20189;-66
2023/04/12 08:46:23;;;;;;;7.57;4.70;;;23.30;60.30;;;;;;4801370;29;20047;-66
2023/04/12 08:48:53;;;;;;;8.35;5.20;;;23.20;63.20;;;;;;4801525;29;20190;-67
2023/04/12 08:51:25;;;;;;;7.07;4.95;;;23.30;64.30;;;;;;4787653;29;20046;-67
2023/04/12 08:53:52;;;;;;;7.22;5.10;;;23.50;65.10;;;;;;4805059;29;20453;-67
2023/04/12 08:56:21;;;;;;;8.45;5.28;;;23.70;64.70;;;;;;4813479;29;20468;-68
2023/04/12 08:58:47;;;;;;;12.82;7.95;;;23.80;60.90;;;;;;4822771;29;20057;-67
2023/04/12 09:01:15;;;;;;;10.95;5.25;;;23.80;60.00;;;;;;4822787;29;20062;-67
2023/04/12 09:03:45;;;;;;;8.38;5.22;;;23.80;59.50;;;;;;4822556;29;20058;-68
2023/04/12 09:06:12;;;;;;;10.10;5.78;;;23.80;59.20;;;;;;4822362;29;20067;-66
2023/04/12 09:08:55;;;;;;;14.07;6.95;;;23.70;58.20;;;;;;4822833;29;20106;-67
2023/04/12 09:11:28;;;;;;;12.02;6.25;;;23.70;55.60;;;;;;4822917;29;20129;-67
2023/04/12 09:13:56;;;;;;;6.28;4.43;;;23.70;59.20;;;;;;4832287;29;20064;-66
2023/04/12 09:16:34;;;;;;;8.02;5.15;;;23.70;59.30;;;;;;4843605;29;20037;-66
2023/04/12 09:19:02;;;;;;;7.88;5.00;;;23.70;58.80;;;;;;4842290;29;20063;-66
2023/04/12 09:21:28;;;;;;;6.05;4.10;;;23.80;57.90;;;;;;4843472;29;20490;-66
2023/04/12 09:24:09;;;;;;;5.95;4.70;;;23.60;56.40;;;;;;4843125;29;20050;-66
2023/04/12 09:26:36;;;;;;;8.52;6.18;;;23.70;58.90;;;;;;4843354;29;20034;-67
2023/04/12 09:29:05;;;;;;;6.95;5.32;;;23.70;58.00;;;;;;4843038;29;20106;-68
2023/04/12 09:31:31;;;;;;;8.60;6.20;;;23.80;58.60;;;;;;4842876;29;20034;-67
2023/04/12 09:34:07;;;;;;;7.90;5.45;;;24.10;58.60;;;;;;4841786;29;20072;-66
2023/04/12 09:36:38;;;;;;;6.32;5.15;;;24.20;54.70;;;;;;4858766;29;20037;-68
2023/04/12 09:39:05;;;;;;;8.27;5.32;;;24.20;52.30;;;;;;4861606;29;20045;-68
2023/04/12 09:41:31;;;;;;;6.90;4.60;;;24.10;52.40;;;;;;4861639;29;20513;-67
2023/04/12 09:43:58;;;;;;;9.10;5.85;;;24.10;51.30;;;;;;4861395;29;20041;-68
2023/04/12 09:46:24;;;;;;;6.65;4.55;;;24.20;47.30;;;;;;4861853;29;20044;-68
2023/04/12 09:48:53;;;;;;;9.77;5.18;;;24.30;50.90;;;;;;4861258;29;20037;-67
2023/04/12 09:51:31;;;;;;;6.05;4.90;;;24.30;59.30;;;;;;4859259;29;20095;-68
2023/04/12 09:54:02;;;;;;;8.00;5.50;;;24.80;62.20;;;;;;4859753;29;20405;-67
2023/04/12 09:56:30;;;;;;;11.95;6.80;;;24.80;49.90;;;;;;4861052;29;20086;-67
2023/04/12 09:59:03;;;;;;;6.38;5.30;;;24.90;49.60;;;;;;4827829;29;20049;-67
2023/04/12 10:01:42;;;;;;;8.85;5.20;;;24.60;44.60;;;;;;4845037;29;20037;-68
2023/04/12 10:04:08;;;;;;;6.40;5.22;;;24.70;51.20;;;;;;4841976;29;20535;-67
2023/04/12 10:06:35;;;;;;;10.82;6.10;;;24.60;52.20;;;;;;4842573;29;20054;-67
2023/04/12 10:09:05;;;;;;;6.80;5.65;;;24.40;52.80;;;;;;4842546;29;20038;-67
2023/04/12 10:11:34;;;;;;;6.68;5.05;;;24.40;56.10;;;;;;4842485;29;20391;-66
2023/04/12 10:14:05;;;;;;;10.25;5.50;;;24.40;55.70;;;;;;4842179;29;20038;-68
2023/04/12 10:16:33;;;;;;;10.52;6.47;;;24.30;56.50;;;;;;4842340;29;20041;-67
2023/04/12 10:19:03;;;;;;;7.13;5.15;;;24.30;57.20;;;;;;4842169;29;20038;-65
2023/04/12 10:21:29;;;;;;;8.85;5.85;;;24.70;58.20;;;;;;4842368;29;20038;-68
2023/04/12 10:23:57;;;;;;;6.53;5.45;;;24.90;59.80;;;;;;4841036;29;20139;-66
2023/04/12 10:26:23;;;;;;;8.57;5.60;;;25.30;57.50;;;;;;4855675;29;20491;-67
2023/04/12 10:29:24;;;;;;;7.93;5.18;;;25.40;52.50;;;;;;4842236;29;20121;-66
2023/04/12 10:31:55;;;;;;;8.73;5.43;;;25.40;53.10;;;;;;4842170;29;20042;-67
2023/04/12 10:34:29;;;;;;;7.50;5.47;;;25.30;57.20;;;;;;4839742;29;20089;-67
2023/04/12 10:37:08;;;;;;;7.00;4.93;;;25.00;57.40;;;;;;4812981;29;20046;-66
2023/04/12 10:39:37;;;;;;;8.48;5.25;;;25.10;56.80;;;;;;4823838;29;20106;-67
2023/04/12 10:42:17;;;;;;;11.07;5.45;;;25.00;56.70;;;;;;4839657;29;20061;-66
2023/04/12 10:44:54;;;;;;;7.28;4.88;;;24.80;57.70;;;;;;4824140;29;20049;-67
2023/04/12 10:48:00;;;;;;;8.55;4.68;;;24.80;57.80;;;;;;4838860;29;20048;-68
2023/04/12 10:50:29;;;;;;;7.82;5.55;;;24.70;58.10;;;;;;4839269;29;20049;-66
2023/04/12 10:53:11;;;;;;;8.32;5.60;;;24.80;57.80;;;;;;4839366;29;20046;-67
2023/04/12 10:55:38;;;;;;;8.27;6.00;;;24.80;58.20;;;;;;4839209;29;20050;-68
2023/04/12 10:58:05;;;;;;;9.10;5.75;;;24.70;58.20;;;;;;4838958;29;20533;-67
2023/04/12 11:00:58;;;;;;;7.47;5.75;;;24.70;58.30;;;;;;4839132;29;20054;-67
2023/04/12 11:03:26;;;;;;;7.22;4.82;;;24.80;58.40;;;;;;4838459;29;20049;-67
2023/04/12 11:06:05;;;;;;;10.25;6.47;;;24.70;58.40;;;;;;4820960;29;20123;-66
2023/04/12 11:08:54;;;;;;;7.90;5.30;;;24.60;57.60;;;;;;4820770;29;20081;-67
2023/04/12 11:11:33;;;;;;;9.57;5.13;;;24.60;58.70;;;;;;4821181;29;20506;-67
2023/04/12 11:14:01;;;;;;;9.85;5.35;;;24.70;58.80;;;;;;4827200;29;20054;-67
2023/04/12 11:16:27;;;;;;;7.07;4.53;;;24.70;58.80;;;;;;4841606;29;20065;-67
2023/04/12 11:18:53;;;;;;;9.32;5.10;;;24.60;58.70;;;;;;4841421;29;20076;-66
2023/04/12 11:21:20;;;;;;;9.07;5.47;;;24.60;58.40;;;;;;4839928;29;20045;-66
2023/04/12 11:23:47;;;;;;;8.93;5.28;;;24.60;58.60;;;;;;4839910;29;20297;-67
2023/04/12 11:26:19;;;;;;;7.70;5.57;;;24.50;58.50;;;;;;4840399;29;20509;-67
2023/04/12 11:28:47;;;;;;;9.02;5.65;;;24.50;59.00;;;;;;4841370;29;20046;-68
2023/04/12 11:31:13;;;;;;;8.15;5.22;;;24.40;59.20;;;;;;4840116;29;20491;-67
2023/04/12 11:33:40;;;;;;;8.23;5.13;;;24.40;59.50;;;;;;4840971;29;20037;-66
2023/04/12 11:36:11;;;;;;;7.63;5.10;;;24.30;59.70;;;;;;4852985;29;20446;-68
2023/04/12 11:38:38;;;;;;;7.55;5.18;;;24.20;60.00;;;;;;4858254;29;20132;-68
2023/04/12 11:41:07;;;;;;;6.65;4.88;;;24.40;60.20;;;;;;4859794;29;20034;-68
2023/04/12 11:43:37;;;;;;;6.78;4.72;;;24.20;59.90;;;;;;4858420;29;20038;-67
2023/04/12 11:46:03;;;;;;;6.13;4.47;;;24.10;60.40;;;;;;4859675;29;20065;-67
2023/04/12 11:48:29;;;;;;;5.80;4.35;;;24.20;60.30;;;;;;4859129;29;20203;-66
2023/04/12 11:50:56;;;;;;;6.97;4.50;;;24.20;60.20;;;;;;4859336;29;20037;-67
2023/04/12 11:53:27;;;;;;;8.40;4.65;;;24.00;60.10;;;;;;4859308;29;20033;-67
2023/04/12 11:55:57;;;;;;;6.68;4.63;;;24.30;61.30;;;;;;4859364;29;20362;-67
2023/04/12 11:58:26;;;;;;;8.20;4.75;;;24.20;63.90;;;;;;4841830;29;20061;-66
2023/04/12 12:00:54;;;;;;;8.13;4.63;;;24.10;61.20;;;;;;4856642;29;20033;-67
2023/04/12 12:03:20;;;;;;;6.30;4.72;;;24.00;62.70;;;;;;4859131;29;20037;-68
2023/04/12 12:05:47;;;;;;;7.97;4.57;;;23.90;59.40;;;;;;4840656;29;20061;-67
2023/04/12 12:08:14;;;;;;;6.78;4.43;;;23.90;61.80;;;;;;4840313;29;20061;-68
2023/04/12 12:10:40;;;;;;;5.10;4.05;;;24.00;62.30;;;;;;4840666;29;20041;-69
2023/04/12 12:13:11;;;;;;;8.48;4.55;;;24.00;61.80;;;;;;4840776;29;20038;-68
2023/04/12 12:15:37;;;;;;;5.15;4.13;;;24.00;61.50;;;;;;4840798;29;20042;-67
2023/04/12 12:18:07;;;;;;;6.28;4.10;;;24.00;61.30;;;;;;4840512;29;20042;-67
2023/04/12 12:20:56;;;;;;;7.28;4.57;;;24.10;61.50;;;;;;4839564;29;20042;-67
2023/04/12 12:23:31;;;;;;;6.78;4.15;;;24.00;60.90;;;;;;4840744;29;20030;-67
2023/04/12 12:25:59;;;;;;;6.28;4.50;;;24.20;60.90;;;;;;4843483;29;20489;-69
2023/04/12 12:28:25;;;;;;;7.20;4.47;;;24.10;61.40;;;;;;4846881;29;20034;-68
2023/04/12 12:30:56;;;;;;;7.00;5.03;;;24.20;60.80;;;;;;4830234;29;20049;-68
2023/04/12 12:33:23;;;;;;;6.72;4.28;;;24.10;61.00;;;;;;4846723;29;20038;-68
2023/04/12 12:35:58;;;;;;;7.43;5.05;;;24.10;60.90;;;;;;4856677;29;20034;-69
2023/04/12 12:38:33;;;;;;;9.63;5.07;;;24.30;61.00;;;;;;4865027;29;20034;-68
2023/04/12 12:41:20;;;;;;;4.47;3.85;;;24.20;60.80;;;;;;4865126;29;20185;-69
2023/04/12 12:43:47;;;;;;;5.90;5.00;;;24.30;60.20;;;;;;4864970;29;20412;-69
2023/04/12 12:46:14;;;;;;;8.93;4.90;;;24.20;59.20;;;;;;4864048;29;20189;-69
2023/04/12 12:48:40;;;;;;;5.57;4.70;;;24.20;60.10;;;;;;4846641;29;20034;-68
2023/04/12 12:51:10;;;;;;;6.50;4.28;;;24.30;59.70;;;;;;4846627;29;20042;-68
2023/04/12 12:53:40;;;;;;;8.02;4.95;;;24.20;60.20;;;;;;4846563;29;20408;-69
2023/04/12 12:56:11;;;;;;;5.03;3.95;;;24.30;60.60;;;;;;4845096;29;20049;-69